createdAt,value
2019-05-16T00:00:41.565Z,47.62
2019-05-16T00:03:11.703Z,47.68
2019-05-16T00:05:50.453Z,47.67
2019-05-16T00:08:13.561Z,47.84
2019-05-16T00:10:43.463Z,47.85
2019-05-16T00:13:13.864Z,48.06
2019-05-16T00:15:44.909Z,47.94
2019-05-16T00:18:17.724Z,47.88
2019-05-16T00:20:49.249Z,47.79
2019-05-16T00:23:19.424Z,47.97
2019-05-16T00:25:49.328Z,47.85
2019-05-16T00:28:19.644Z,48.00
2019-05-16T00:30:49.513Z,48.13
2019-05-16T00:33:19.785Z,48.20
2019-05-16T00:36:02.236Z,48.27
2019-05-16T00:38:22.354Z,48.09
2019-05-16T00:40:52.740Z,48.12
2019-05-16T00:43:22.739Z,48.14
2019-05-16T00:45:52.749Z,48.20
2019-05-16T00:48:22.723Z,48.27
2019-05-16T00:50:53.077Z,48.51
2019-05-16T00:53:23.197Z,48.78
2019-05-16T00:55:54.457Z,48.82
2019-05-16T00:58:25.657Z,48.92
2019-05-16T01:00:55.638Z,48.88
2019-05-16T01:03:25.475Z,49.02
2019-05-16T01:05:58.311Z,49.11
2019-05-16T01:08:28.778Z,49.15
2019-05-16T01:10:59.253Z,49.10
2019-05-16T01:13:29.641Z,49.00
2019-05-16T01:16:00.410Z,48.90
2019-05-16T01:18:31.525Z,49.01
2019-05-16T01:21:02.320Z,49.06
2019-05-16T01:23:32.998Z,49.23
2019-05-16T01:26:04.298Z,49.40
2019-05-16T01:28:37.923Z,49.58
2019-05-16T01:31:08.681Z,49.88
2019-05-16T01:33:38.786Z,50.31
2019-05-16T01:36:09.233Z,50.50
2019-05-16T01:38:39.916Z,50.76
2019-05-16T01:41:09.984Z,50.95
2019-05-16T01:43:40.034Z,51.29
2019-05-16T01:46:10.095Z,51.50
2019-05-16T01:48:40.050Z,51.70
2019-05-16T01:51:10.092Z,51.98
2019-05-16T01:53:40.489Z,52.17
2019-05-16T01:56:11.749Z,52.19
2019-05-16T01:58:44.014Z,52.35
2019-05-16T02:01:16.578Z,52.62
2019-05-16T02:03:48.199Z,52.95
2019-05-16T02:06:18.657Z,53.36
2019-05-16T02:08:48.916Z,54.10
2019-05-16T02:11:18.831Z,54.57
2019-05-16T02:13:48.921Z,54.99
2019-05-16T02:16:19.049Z,55.25
2019-05-16T02:18:49.042Z,56.03
2019-05-16T02:21:19.321Z,56.53
2019-05-16T02:23:51.652Z,56.64
2019-05-16T02:26:22.265Z,57.09
2019-05-16T02:28:52.650Z,57.34
2019-05-16T02:31:23.068Z,57.37
2019-05-16T02:33:53.378Z,57.52
2019-05-16T02:36:23.266Z,57.66
2019-05-16T02:38:55.607Z,57.35
2019-05-16T02:41:25.015Z,57.41
2019-05-16T02:43:54.987Z,57.31
2019-05-16T02:46:25.156Z,57.10
2019-05-16T02:48:56.156Z,57.19
2019-05-16T02:51:26.974Z,57.25
2019-05-16T02:53:56.994Z,57.30
2019-05-16T02:56:27.340Z,57.09
2019-05-16T02:59:01.415Z,57.33
2019-05-16T03:01:31.715Z,57.15
2019-05-16T03:04:01.934Z,57.05
2019-05-16T03:06:32.803Z,56.99
2019-05-16T03:09:06.403Z,57.04
2019-05-16T03:11:37.143Z,56.94
2019-05-16T03:14:07.521Z,56.85
2019-05-16T03:16:41.800Z,56.69
2019-05-16T03:19:14.488Z,56.63
2019-05-16T03:21:45.186Z,56.51
2019-05-16T03:24:15.628Z,56.54
2019-05-16T03:26:45.795Z,56.56
2019-05-16T03:29:16.408Z,56.64
2019-05-16T03:31:46.619Z,56.87
2019-05-16T03:34:24.171Z,56.84
2019-05-16T03:36:54.493Z,56.81
2019-05-16T03:39:21.416Z,56.87
2019-05-16T03:41:54.558Z,56.84
2019-05-16T03:44:24.636Z,56.90
2019-05-16T03:46:54.812Z,56.98
2019-05-16T03:49:25.786Z,56.88
2019-05-16T03:51:55.796Z,56.82
2019-05-16T03:54:25.884Z,56.73
2019-05-16T03:56:55.890Z,56.71
2019-05-16T03:59:25.764Z,56.93
2019-05-16T04:01:55.747Z,56.81
2019-05-16T04:04:25.721Z,56.93
2019-05-16T04:06:55.734Z,56.87
2019-05-16T04:09:25.784Z,56.62
2019-05-16T04:11:56.195Z,56.55
2019-05-16T04:14:30.906Z,56.39
2019-05-16T04:17:01.841Z,56.20
2019-05-16T04:19:33.429Z,56.35
2019-05-16T04:22:04.602Z,56.24
2019-05-16T04:24:34.857Z,56.03
2019-05-16T04:27:04.772Z,55.90
2019-05-16T04:29:35.125Z,55.78
2019-05-16T04:32:11.042Z,55.56
2019-05-16T04:34:44.516Z,55.58
2019-05-16T04:37:14.594Z,55.51
2019-05-16T04:39:44.730Z,55.73
2019-05-16T04:42:14.958Z,55.97
2019-05-16T04:44:45.193Z,55.64
2019-05-16T04:47:16.353Z,55.74
2019-05-16T04:49:46.359Z,55.48
2019-05-16T04:52:16.278Z,55.47
2019-05-16T04:54:46.370Z,55.44
2019-05-16T04:57:16.416Z,55.63
2019-05-16T04:59:46.707Z,55.71
2019-05-16T05:02:16.703Z,55.62
2019-05-16T05:04:46.880Z,55.51
2019-05-16T05:07:20.370Z,55.45
2019-05-16T05:09:51.331Z,55.19
2019-05-16T05:12:22.213Z,54.61
2019-05-16T05:14:52.248Z,54.27
2019-05-16T05:17:23.396Z,54.23
2019-05-16T05:19:53.503Z,53.88
2019-05-16T05:22:25.162Z,53.87
2019-05-16T05:25:00.006Z,53.56
2019-05-16T05:27:33.886Z,53.24
2019-05-16T05:30:10.505Z,52.84
2019-05-16T05:32:41.600Z,52.10
2019-05-16T05:35:13.316Z,52.32
2019-05-16T05:37:52.641Z,51.88
2019-05-16T05:40:26.781Z,51.88
2019-05-16T05:42:59.857Z,51.73
2019-05-16T05:45:33.581Z,51.45
2019-05-16T05:48:04.096Z,51.25
2019-05-16T05:50:35.656Z,51.25
2019-05-16T05:53:06.276Z,51.84
2019-05-16T05:55:37.140Z,52.26
2019-05-16T05:58:10.083Z,53.80
2019-05-16T06:00:40.675Z,54.29
2019-05-16T06:03:10.831Z,54.78
2019-05-16T06:05:41.343Z,55.40
2019-05-16T06:08:11.589Z,56.02
2019-05-16T06:10:41.593Z,56.51
2019-05-16T06:13:12.372Z,56.19
2019-05-16T06:15:42.556Z,56.19
2019-05-16T06:18:12.940Z,56.19
2019-05-16T06:20:43.038Z,56.08
2019-05-16T06:23:13.086Z,56.56
2019-05-16T06:25:43.054Z,57.41
2019-05-16T06:28:13.075Z,56.67
2019-05-16T06:30:43.308Z,57.73
2019-05-16T06:33:13.583Z,58.06
2019-05-16T06:35:45.391Z,57.92
2019-05-16T06:38:15.392Z,58.74
2019-05-16T06:40:45.556Z,59.87
2019-05-16T06:43:15.566Z,59.72
2019-05-16T06:45:45.663Z,59.07
2019-05-16T06:48:15.928Z,59.52
2019-05-16T06:50:45.952Z,59.71
2019-05-16T06:53:23.215Z,59.74
2019-05-16T06:55:54.732Z,59.40
2019-05-16T06:58:24.708Z,58.83
2019-05-16T07:00:54.884Z,58.81
2019-05-16T07:03:25.062Z,58.60
2019-05-16T07:06:00.583Z,57.24
2019-05-16T07:08:31.154Z,56.15
2019-05-16T07:11:01.526Z,55.60
2019-05-16T07:13:32.348Z,55.46
2019-05-16T07:16:03.039Z,55.85
2019-05-16T07:18:32.889Z,55.46
2019-05-16T07:21:03.245Z,55.49
2019-05-16T07:23:33.215Z,56.20
2019-05-16T07:26:03.815Z,55.96
2019-05-16T07:28:45.317Z,56.38
2019-05-16T07:31:18.752Z,57.57
2019-05-16T07:33:50.043Z,58.02
2019-05-16T07:36:20.916Z,58.32
2019-05-16T07:38:51.053Z,57.82
2019-05-16T07:41:21.264Z,59.22
2019-05-16T07:43:51.589Z,58.73
2019-05-16T07:46:21.769Z,59.88
2019-05-16T07:48:52.250Z,59.86
2019-05-16T07:51:23.686Z,60.83
2019-05-16T07:53:53.817Z,60.75
2019-05-16T07:56:23.869Z,61.20
2019-05-16T07:58:54.117Z,62.14
2019-05-16T08:01:24.513Z,61.55
2019-05-16T08:03:54.657Z,62.38
2019-05-16T08:06:24.698Z,63.03
2019-05-16T08:08:54.932Z,63.16
2019-05-16T08:11:25.379Z,63.50
2019-05-16T08:13:55.256Z,63.55
2019-05-16T08:16:25.817Z,63.62
2019-05-16T08:18:55.960Z,63.89
2019-05-16T08:21:30.216Z,63.55
2019-05-16T08:24:07.187Z,62.88
2019-05-16T08:26:38.823Z,62.76
2019-05-16T08:29:07.893Z,62.99
2019-05-16T08:31:38.030Z,62.98
2019-05-16T08:34:12.250Z,62.70
2019-05-16T08:36:42.236Z,61.64
2019-05-16T08:39:14.089Z,61.76
2019-05-16T08:41:44.779Z,61.68
2019-05-16T08:44:16.609Z,61.44
2019-05-16T08:49:24.820Z,62.79
2019-05-16T08:52:01.522Z,62.41
2019-05-16T08:54:32.877Z,61.97
2019-05-16T08:57:22.964Z,61.88
2019-05-16T08:59:36.079Z,61.00
2019-05-16T09:02:12.020Z,60.92
2019-05-16T09:04:44.161Z,60.86
2019-05-16T09:07:12.720Z,61.84
2019-05-16T09:09:51.148Z,63.50
2019-05-16T09:10:31.813Z,62.87
2019-05-16T09:12:18.056Z,63.16
2019-05-16T09:14:48.895Z,64.57
2019-05-16T09:17:19.119Z,65.19
2019-05-16T09:19:49.400Z,64.67
2019-05-16T09:22:19.680Z,64.96
2019-05-16T09:24:50.882Z,65.75
2019-05-16T09:27:21.187Z,65.53
2019-05-16T09:32:21.649Z,66.30
2019-05-16T09:34:52.033Z,65.74
2019-05-16T09:37:22.440Z,66.14
2019-05-16T09:39:52.647Z,66.25
2019-05-16T09:42:23.194Z,66.53
2019-05-16T09:44:53.906Z,66.59
2019-05-16T09:47:28.196Z,66.75
2019-05-16T09:50:00.949Z,66.95
2019-05-16T09:52:32.511Z,67.35
2019-05-16T09:55:04.162Z,67.84
2019-05-16T09:57:37.328Z,68.38
2019-05-16T10:00:10.044Z,68.20
2019-05-16T10:02:41.133Z,69.06
2019-05-16T10:05:13.528Z,69.52
2019-05-16T10:07:47.053Z,70.60
2019-05-16T10:10:17.296Z,71.30
2019-05-16T10:12:47.950Z,71.86
2019-05-16T10:15:19.534Z,71.51
2019-05-16T10:17:49.682Z,71.96
2019-05-16T10:20:19.764Z,72.33
2019-05-16T10:22:50.571Z,72.19
2019-05-16T10:25:21.495Z,71.76
2019-05-16T10:27:52.247Z,70.55
2019-05-16T10:30:26.931Z,71.04
2019-05-16T10:33:00.921Z,71.03
2019-05-16T10:35:30.298Z,71.55
2019-05-16T10:38:00.820Z,71.31
2019-05-16T10:40:32.473Z,71.22
2019-05-16T10:43:06.893Z,70.74
2019-05-16T10:45:37.752Z,70.37
2019-05-16T10:48:08.282Z,70.88
2019-05-16T10:50:38.824Z,70.75
2019-05-16T10:53:32.623Z,70.83
2019-05-16T10:55:41.235Z,71.06
2019-05-16T10:58:11.570Z,71.34
2019-05-16T11:01:09.941Z,71.18
2019-05-16T11:03:16.967Z,71.00
2019-05-16T11:06:02.958Z,70.73
2019-05-16T11:08:22.132Z,70.45
2019-05-16T11:10:53.867Z,69.72
2019-05-16T11:13:24.139Z,69.32
2019-05-16T11:15:55.150Z,69.17
2019-05-16T11:18:27.289Z,68.84
2019-05-16T11:20:58.512Z,68.14
2019-05-16T11:23:31.489Z,67.87
2019-05-16T11:26:01.072Z,68.77
2019-05-16T11:28:31.870Z,68.58
2019-05-16T11:31:03.929Z,68.59
2019-05-16T11:33:36.837Z,67.75
2019-05-16T11:36:08.181Z,66.86
2019-05-16T11:38:39.642Z,66.38
2019-05-16T11:41:10.849Z,65.48
2019-05-16T11:43:44.208Z,65.59
2019-05-16T11:46:14.432Z,65.52
2019-05-16T11:48:44.893Z,66.06
2019-05-16T11:51:17.442Z,65.98
2019-05-16T11:53:47.673Z,66.55
2019-05-16T11:56:18.157Z,65.66
2019-05-16T11:58:53.430Z,65.77
2019-05-16T12:01:27.470Z,65.24
2019-05-16T12:04:03.507Z,65.84
2019-05-16T12:06:33.684Z,65.58
2019-05-16T12:09:06.794Z,65.80
2019-05-16T12:11:38.464Z,66.24
2019-05-16T12:14:13.847Z,66.73
2019-05-16T12:16:47.234Z,67.50
2019-05-16T12:19:18.127Z,67.42
2019-05-16T12:21:49.244Z,67.71
2019-05-16T12:24:32.323Z,67.76
2019-05-16T12:26:56.875Z,67.48
2019-05-16T12:29:28.794Z,68.17
2019-05-16T12:32:07.182Z,69.04
2019-05-16T12:34:46.334Z,68.67
2019-05-16T12:37:28.909Z,68.32
2019-05-16T12:40:02.063Z,69.08
2019-05-16T12:42:33.169Z,69.02
2019-05-16T12:45:08.428Z,68.63
2019-05-16T12:47:47.336Z,68.33
2019-05-16T12:50:18.167Z,68.07
2019-05-16T12:52:50.023Z,67.99
2019-05-16T12:55:20.252Z,68.08
2019-05-16T12:57:58.718Z,68.27
2019-05-16T13:00:23.079Z,68.38
2019-05-16T13:02:53.901Z,68.75
2019-05-16T13:05:26.924Z,69.04
2019-05-16T13:07:56.630Z,68.56
2019-05-16T13:10:27.163Z,69.15
2019-05-16T13:12:58.226Z,69.78
2019-05-16T13:15:28.661Z,69.92
2019-05-16T13:17:58.813Z,69.39
2019-05-16T13:20:46.875Z,69.27
2019-05-16T13:23:26.763Z,69.36
2019-05-16T13:25:57.555Z,68.81
2019-05-16T13:28:31.534Z,68.28
2019-05-16T13:31:01.874Z,67.37
2019-05-16T13:33:36.680Z,66.73
2019-05-16T13:36:07.505Z,66.24
2019-05-16T13:38:38.748Z,66.37
2019-05-16T13:41:08.853Z,67.05
2019-05-16T13:43:38.930Z,67.14
2019-05-16T13:46:09.297Z,67.06
2019-05-16T13:48:39.344Z,67.07
2019-05-16T13:51:15.279Z,66.59
2019-05-16T13:56:13.356Z,66.48
2019-05-16T13:58:42.479Z,66.48
2019-05-16T14:01:12.645Z,65.88
2019-05-16T14:03:42.861Z,65.54
2019-05-16T14:06:12.475Z,65.47
2019-05-16T14:08:43.068Z,65.27
2019-05-16T14:11:13.278Z,65.56
2019-05-16T14:13:43.701Z,66.12
2019-05-16T14:16:14.747Z,67.32
2019-05-16T14:18:48.104Z,68.34
2019-05-16T14:21:18.979Z,68.67
2019-05-16T14:23:53.918Z,69.00
2019-05-16T14:26:24.491Z,69.37
2019-05-16T14:28:57.347Z,69.44
2019-05-16T14:31:26.921Z,69.52
2019-05-16T14:33:57.244Z,69.37
2019-05-16T14:36:28.169Z,69.18
2019-05-16T14:38:58.429Z,69.43
2019-05-16T14:41:29.053Z,69.88
2019-05-16T14:43:59.805Z,70.19
2019-05-16T14:46:30.294Z,70.62
2019-05-16T14:49:07.822Z,71.07
2019-05-16T14:51:39.126Z,71.56
2019-05-16T14:54:11.464Z,71.80
2019-05-16T14:56:47.363Z,72.09
2019-05-16T14:59:17.664Z,71.68
2019-05-16T15:01:52.527Z,71.14
2019-05-16T15:04:30.071Z,70.62
2019-05-16T15:07:00.658Z,70.51
2019-05-16T15:09:31.414Z,70.74
2019-05-16T15:12:06.703Z,70.39
2019-05-16T15:14:37.497Z,70.38
2019-05-16T15:17:07.831Z,70.61
2019-05-16T15:19:39.824Z,70.97
2019-05-16T15:22:10.478Z,71.37
2019-05-16T15:24:40.949Z,71.52
2019-05-16T15:27:12.207Z,71.84
2019-05-16T15:29:42.829Z,72.33
2019-05-16T15:32:17.706Z,72.34
2019-05-16T15:34:48.949Z,72.52
2019-05-16T15:37:21.214Z,72.65
2019-05-16T15:39:54.178Z,73.00
2019-05-16T15:42:24.312Z,73.81
2019-05-16T15:44:55.225Z,74.17
2019-05-16T15:47:28.476Z,74.07
2019-05-16T15:49:59.982Z,74.18
2019-05-16T15:53:03.068Z,74.46
2019-05-16T15:55:36.494Z,74.62
2019-05-16T15:58:10.327Z,74.83
2019-05-16T16:00:47.449Z,75.23
2019-05-16T16:03:17.609Z,75.38
2019-05-16T16:05:48.052Z,75.59
2019-05-16T16:08:18.799Z,75.53
2019-05-16T16:10:49.293Z,75.79
2019-05-16T16:13:20.131Z,75.87
2019-05-16T16:15:54.483Z,75.76
2019-05-16T16:18:23.151Z,75.75
2019-05-16T16:20:53.258Z,75.77
2019-05-16T16:23:23.664Z,75.69
2019-05-16T16:26:00.200Z,75.97
2019-05-16T16:28:31.307Z,76.00
2019-05-16T16:31:01.798Z,76.12
2019-05-16T16:33:37.437Z,76.14
2019-05-16T16:36:08.378Z,76.04
2019-05-16T16:38:39.865Z,75.41
2019-05-16T16:41:10.961Z,75.16
2019-05-16T16:43:42.161Z,75.21
2019-05-16T16:46:13.838Z,74.77
2019-05-16T16:48:44.690Z,74.64
2019-05-16T16:51:18.135Z,74.30
2019-05-16T16:53:53.183Z,74.14
2019-05-16T16:56:28.801Z,74.04
2019-05-16T16:59:01.881Z,73.83
2019-05-16T17:01:37.512Z,73.84
2019-05-16T17:04:08.451Z,73.73
2019-05-16T17:06:38.853Z,73.59
2019-05-16T17:09:11.203Z,73.56
2019-05-16T17:11:43.658Z,73.61
2019-05-16T17:14:17.527Z,73.50
2019-05-16T17:16:57.548Z,73.41
2019-05-16T17:19:31.248Z,73.50
2019-05-16T17:22:16.264Z,73.49
2019-05-16T17:24:39.782Z,73.42
2019-05-16T17:27:11.426Z,73.17
2019-05-16T17:29:43.296Z,73.19
2019-05-16T17:32:18.578Z,73.31
2019-05-16T17:34:49.752Z,73.58
2019-05-16T17:37:27.277Z,73.73
2019-05-16T17:39:57.319Z,73.62
2019-05-16T17:42:35.222Z,73.72
2019-05-16T17:45:09.080Z,74.00
2019-05-16T17:47:40.013Z,74.32
2019-05-16T17:50:11.424Z,74.33
2019-05-16T17:52:42.236Z,74.54
2019-05-16T17:55:17.172Z,74.84
2019-05-16T17:57:47.715Z,75.00
2019-05-16T18:00:25.613Z,74.93
2019-05-16T18:02:56.913Z,74.81
2019-05-16T18:05:27.701Z,74.75
2019-05-16T18:08:00.278Z,74.93
2019-05-16T18:10:31.156Z,74.84
2019-05-16T18:13:07.434Z,74.73
2019-05-16T18:15:37.440Z,74.96
2019-05-16T18:18:08.421Z,75.00
2019-05-16T18:20:38.742Z,74.90
2019-05-16T18:23:10.320Z,74.84
2019-05-16T18:25:42.686Z,74.99
2019-05-16T18:28:17.784Z,75.16
2019-05-16T18:30:51.953Z,75.28
2019-05-16T18:33:27.543Z,75.51
2019-05-16T18:36:00.101Z,75.71
2019-05-16T18:38:31.138Z,76.29
2019-05-16T18:41:01.350Z,76.73
2019-05-16T18:43:32.982Z,77.00
2019-05-16T18:46:07.158Z,77.08
2019-05-16T18:48:37.063Z,77.09
2019-05-16T18:51:07.235Z,77.17
2019-05-16T18:53:37.633Z,77.20
2019-05-16T18:56:08.054Z,77.32
2019-05-16T18:58:38.259Z,77.32
2019-05-16T19:01:08.514Z,77.39
2019-05-16T19:03:38.851Z,77.32
2019-05-16T19:06:09.310Z,77.19
2019-05-16T19:08:39.891Z,77.18
2019-05-16T19:11:10.167Z,77.19
2019-05-16T19:13:40.583Z,77.48
2019-05-16T19:16:11.320Z,77.70
2019-05-16T19:18:41.654Z,77.79
2019-05-16T19:21:12.546Z,77.88
2019-05-16T19:23:43.048Z,77.96
2019-05-16T19:26:13.449Z,77.94
2019-05-16T19:28:46.583Z,77.98
2019-05-16T19:31:17.292Z,77.92
2019-05-16T19:33:48.835Z,78.07
2019-05-16T19:36:19.602Z,78.18
2019-05-16T19:38:50.049Z,78.11
2019-05-16T19:41:20.112Z,78.16
2019-05-16T19:43:50.112Z,78.03
2019-05-16T19:46:23.515Z,77.95
2019-05-16T19:48:53.138Z,77.84
2019-05-16T19:51:26.784Z,77.82
2019-05-16T19:53:56.721Z,77.89
2019-05-16T19:56:27.072Z,77.85
2019-05-16T19:58:57.287Z,78.05
2019-05-16T20:01:27.809Z,78.10
2019-05-16T20:03:58.141Z,78.17
2019-05-16T20:06:28.130Z,78.08
2019-05-16T20:08:58.495Z,78.19
2019-05-16T20:11:29.233Z,78.22
2019-05-16T20:13:59.615Z,78.27
2019-05-16T20:16:33.870Z,78.19
2019-05-16T20:19:05.256Z,78.07
2019-05-16T20:21:36.920Z,77.98
2019-05-16T20:24:07.567Z,77.71
2019-05-16T20:26:38.054Z,77.61
2019-05-16T20:29:08.334Z,77.42
2019-05-16T20:31:38.250Z,77.49
2019-05-16T20:34:09.465Z,77.54
2019-05-16T20:36:39.427Z,77.35
2019-05-16T20:39:09.716Z,77.31
2019-05-16T20:41:39.959Z,77.42
2019-05-16T20:44:11.086Z,77.52
2019-05-16T20:46:42.875Z,77.59
2019-05-16T20:49:13.235Z,77.66
2019-05-16T20:51:43.251Z,77.85
2019-05-16T20:54:13.249Z,77.99
2019-05-16T20:56:43.296Z,78.36
2019-05-16T20:59:14.537Z,78.32
2019-05-16T21:01:46.494Z,78.64
2019-05-16T21:04:17.271Z,78.94
2019-05-16T21:06:57.483Z,78.89
2019-05-16T21:09:20.273Z,79.00
2019-05-16T21:11:50.371Z,79.06
2019-05-16T21:14:20.312Z,78.99
2019-05-16T21:16:50.570Z,78.86
2019-05-16T21:19:20.844Z,78.76
2019-05-16T21:21:51.149Z,78.99
2019-05-16T21:24:22.331Z,78.95
2019-05-16T21:26:54.831Z,78.92
2019-05-16T21:29:27.516Z,78.85
2019-05-16T21:31:57.361Z,78.85
2019-05-16T21:34:27.386Z,78.82
2019-05-16T21:37:11.003Z,78.77
2019-05-16T21:39:29.506Z,78.67
2019-05-16T21:41:59.527Z,78.69
2019-05-16T21:44:29.482Z,78.92
2019-05-16T21:47:00.109Z,78.93
2019-05-16T21:49:30.109Z,79.02
2019-05-16T21:52:00.169Z,79.01
2019-05-16T21:54:30.137Z,78.84
2019-05-16T21:56:59.981Z,78.73
2019-05-16T21:59:30.112Z,78.75
2019-05-16T22:02:00.067Z,78.67
2019-05-16T22:04:29.935Z,78.60
2019-05-16T22:06:59.929Z,78.62
2019-05-16T22:09:30.194Z,78.68
2019-05-16T22:12:00.542Z,78.77
2019-05-16T22:14:36.862Z,78.92
2019-05-16T22:17:07.730Z,79.24
2019-05-16T22:19:37.823Z,79.43
2019-05-16T22:22:07.682Z,79.64
2019-05-16T22:24:37.645Z,79.73
2019-05-16T22:27:07.669Z,79.72
2019-05-16T22:29:37.741Z,79.72
2019-05-16T22:32:09.290Z,79.66
2019-05-16T22:34:39.481Z,79.69
2019-05-16T22:37:09.589Z,79.64
2019-05-16T22:39:39.523Z,79.62
2019-05-16T22:42:09.546Z,79.57
2019-05-16T22:44:39.507Z,79.41
2019-05-16T22:47:09.432Z,79.40
2019-05-16T22:49:39.309Z,79.47
2019-05-16T22:52:09.324Z,79.52
2019-05-16T22:54:39.490Z,79.58
2019-05-16T22:57:09.384Z,79.48
2019-05-16T22:59:39.395Z,79.33
2019-05-16T23:02:11.880Z,79.30
2019-05-16T23:04:41.812Z,79.25
2019-05-16T23:07:11.702Z,79.24
2019-05-16T23:09:42.204Z,79.18
2019-05-16T23:12:12.094Z,79.12
2019-05-16T23:14:42.135Z,79.04
2019-05-16T23:17:12.023Z,78.90
2019-05-16T23:19:42.004Z,78.87
2019-05-16T23:22:12.051Z,78.65
2019-05-16T23:24:42.174Z,78.53
2019-05-16T23:27:12.861Z,78.54
2019-05-16T23:29:42.912Z,78.30
2019-05-16T23:32:12.818Z,78.32
2019-05-16T23:34:42.956Z,78.43
2019-05-16T23:37:12.816Z,78.43
2019-05-16T23:39:42.860Z,78.39
2019-05-16T23:42:13.138Z,78.45
2019-05-16T23:44:43.484Z,78.59
2019-05-16T23:47:13.390Z,78.80
2019-05-16T23:49:43.323Z,78.76
2019-05-16T23:52:13.378Z,78.60
2019-05-16T23:54:43.790Z,78.44
2019-05-16T23:57:13.729Z,78.48
2019-05-16T23:59:43.893Z,78.38
